sensor_id;sensor_type;location;lat;lon;timestamp;P1;durP1;ratioP1;P2;durP2;ratioP2
69783;SDS011;57054;51.978;4.498;2023-03-23T00:02:19;3.70;;;3.40;;
69783;SDS011;57054;51.978;4.498;2023-03-23T00:04:54;3.60;;;3.20;;
69783;SDS011;57054;51.978;4.498;2023-03-23T00:07:20;5.65;;;3.35;;
69783;SDS011;57054;51.978;4.498;2023-03-23T00:09:50;6.00;;;3.28;;
69783;SDS011;57054;51.978;4.498;2023-03-23T00:12:26;4.25;;;3.20;;
69783;SDS011;57054;51.978;4.498;2023-03-23T00:14:59;5.07;;;3.13;;
69783;SDS011;57054;51.978;4.498;2023-03-23T00:17:26;4.15;;;2.90;;
69783;SDS011;57054;51.978;4.498;2023-03-23T00:19:53;6.53;;;3.15;;
69783;SDS011;57054;51.978;4.498;2023-03-23T00:22:18;7.97;;;2.97;;
69783;SDS011;57054;51.978;4.498;2023-03-23T00:24:46;6.93;;;2.90;;
69783;SDS011;57054;51.978;4.498;2023-03-23T00:27:12;6.25;;;2.88;;
69783;SDS011;57054;51.978;4.498;2023-03-23T00:29:40;4.03;;;2.90;;
69783;SDS011;57054;51.978;4.498;2023-03-23T00:32:06;5.03;;;3.08;;
69783;SDS011;57054;51.978;4.498;2023-03-23T00:34:37;8.15;;;3.60;;
69783;SDS011;57054;51.978;4.498;2023-03-23T00:37:05;3.85;;;3.42;;
69783;SDS011;57054;51.978;4.498;2023-03-23T00:39:32;4.75;;;3.20;;
69783;SDS011;57054;51.978;4.498;2023-03-23T00:41:58;4.32;;;2.90;;
69783;SDS011;57054;51.978;4.498;2023-03-23T00:44:28;3.30;;;2.80;;
69783;SDS011;57054;51.978;4.498;2023-03-23T00:46:56;4.93;;;2.88;;
69783;SDS011;57054;51.978;4.498;2023-03-23T00:49:22;3.83;;;3.13;;
69783;SDS011;57054;51.978;4.498;2023-03-23T00:51:52;3.90;;;2.88;;
69783;SDS011;57054;51.978;4.498;2023-03-23T00:54:19;4.07;;;2.60;;
69783;SDS011;57054;51.978;4.498;2023-03-23T00:56:45;3.17;;;2.80;;
69783;SDS011;57054;51.978;4.498;2023-03-23T00:59:11;5.50;;;2.60;;
69783;SDS011;57054;51.978;4.498;2023-03-23T01:01:37;3.05;;;2.75;;
69783;SDS011;57054;51.978;4.498;2023-03-23T01:04:03;3.45;;;2.30;;
69783;SDS011;57054;51.978;4.498;2023-03-23T01:06:32;3.67;;;2.60;;
69783;SDS011;57054;51.978;4.498;2023-03-23T01:09:00;4.47;;;2.72;;
69783;SDS011;57054;51.978;4.498;2023-03-23T01:11:27;5.15;;;2.75;;
69783;SDS011;57054;51.978;4.498;2023-03-23T01:13:52;3.55;;;2.15;;
69783;SDS011;57054;51.978;4.498;2023-03-23T01:16:18;6.60;;;2.72;;
69783;SDS011;57054;51.978;4.498;2023-03-23T01:18:43;5.05;;;2.88;;
69783;SDS011;57054;51.978;4.498;2023-03-23T01:21:11;6.07;;;2.67;;
69783;SDS011;57054;51.978;4.498;2023-03-23T01:26:04;5.32;;;2.20;;
69783;SDS011;57054;51.978;4.498;2023-03-23T01:28:32;5.90;;;2.47;;
69783;SDS011;57054;51.978;4.498;2023-03-23T01:31:02;4.00;;;2.45;;
69783;SDS011;57054;51.978;4.498;2023-03-23T01:33:30;6.30;;;2.92;;
69783;SDS011;57054;51.978;4.498;2023-03-23T01:35:56;2.78;;;2.30;;
69783;SDS011;57054;51.978;4.498;2023-03-23T01:38:21;4.57;;;2.47;;
69783;SDS011;57054;51.978;4.498;2023-03-23T01:40:47;5.38;;;2.55;;
69783;SDS011;57054;51.978;4.498;2023-03-23T01:43:13;4.47;;;2.53;;
69783;SDS011;57054;51.978;4.498;2023-03-23T01:45:39;2.72;;;2.47;;
69783;SDS011;57054;51.978;4.498;2023-03-23T01:53:35;5.05;;;2.60;;
69783;SDS011;57054;51.978;4.498;2023-03-23T01:56:03;4.03;;;2.17;;
69783;SDS011;57054;51.978;4.498;2023-03-23T01:58:31;2.65;;;2.22;;
69783;SDS011;57054;51.978;4.498;2023-03-23T02:04:20;4.57;;;2.40;;
69783;SDS011;57054;51.978;4.498;2023-03-23T02:06:48;2.35;;;2.10;;
69783;SDS011;57054;51.978;4.498;2023-03-23T02:09:15;3.60;;;2.45;;
69783;SDS011;57054;51.978;4.498;2023-03-23T02:11:42;3.65;;;2.50;;
69783;SDS011;57054;51.978;4.498;2023-03-23T02:14:08;3.47;;;2.60;;
69783;SDS011;57054;51.978;4.498;2023-03-23T02:34:56;3.55;;;2.40;;
69783;SDS011;57054;51.978;4.498;2023-03-23T02:37:29;4.28;;;2.53;;
69783;SDS011;57054;51.978;4.498;2023-03-23T02:40:05;3.72;;;2.22;;
69783;SDS011;57054;51.978;4.498;2023-03-23T02:42:36;2.88;;;2.50;;
69783;SDS011;57054;51.978;4.498;2023-03-23T02:45:05;3.25;;;2.38;;
69783;SDS011;57054;51.978;4.498;2023-03-23T02:47:33;2.55;;;2.10;;
69783;SDS011;57054;51.978;4.498;2023-03-23T02:50:02;5.13;;;2.20;;
69783;SDS011;57054;51.978;4.498;2023-03-23T02:52:31;4.68;;;1.80;;
69783;SDS011;57054;51.978;4.498;2023-03-23T02:54:58;4.55;;;2.05;;
69783;SDS011;57054;51.978;4.498;2023-03-23T02:57:25;3.60;;;1.90;;
69783;SDS011;57054;51.978;4.498;2023-03-23T02:59:52;2.75;;;2.17;;
69783;SDS011;57054;51.978;4.498;2023-03-23T03:02:22;3.88;;;1.70;;
69783;SDS011;57054;51.978;4.498;2023-03-23T03:07:49;2.53;;;1.80;;
69783;SDS011;57054;51.978;4.498;2023-03-23T03:10:22;4.70;;;1.90;;
69783;SDS011;57054;51.978;4.498;2023-03-23T03:12:58;1.85;;;1.65;;
69783;SDS011;57054;51.978;4.498;2023-03-23T03:20:26;7.32;;;2.75;;
69783;SDS011;57054;51.978;4.498;2023-03-23T03:22:54;2.00;;;1.80;;
69783;SDS011;57054;51.978;4.498;2023-03-23T03:25:23;3.80;;;1.67;;
69783;SDS011;57054;51.978;4.498;2023-03-23T03:27:52;2.40;;;2.20;;
69783;SDS011;57054;51.978;4.498;2023-03-23T03:30:19;3.38;;;2.10;;
69783;SDS011;57054;51.978;4.498;2023-03-23T03:32:49;4.40;;;1.95;;
69783;SDS011;57054;51.978;4.498;2023-03-23T03:37:45;6.45;;;2.20;;
69783;SDS011;57054;51.978;4.498;2023-03-23T03:40:15;3.22;;;1.92;;
69783;SDS011;57054;51.978;4.498;2023-03-23T03:42:44;5.50;;;2.30;;
69783;SDS011;57054;51.978;4.498;2023-03-23T03:45:15;3.95;;;1.73;;
69783;SDS011;57054;51.978;4.498;2023-03-23T03:47:43;3.22;;;2.00;;
69783;SDS011;57054;51.978;4.498;2023-03-23T03:50:08;7.40;;;2.05;;
69783;SDS011;57054;51.978;4.498;2023-03-23T03:52:34;5.47;;;1.88;;
69783;SDS011;57054;51.978;4.498;2023-03-23T03:55:01;7.38;;;1.83;;
69783;SDS011;57054;51.978;4.498;2023-03-23T03:57:26;3.20;;;2.13;;
69783;SDS011;57054;51.978;4.498;2023-03-23T03:59:52;6.03;;;2.05;;
69783;SDS011;57054;51.978;4.498;2023-03-23T04:02:17;9.50;;;1.83;;
69783;SDS011;57054;51.978;4.498;2023-03-23T04:04:47;4.22;;;2.10;;
69783;SDS011;57054;51.978;4.498;2023-03-23T04:07:14;4.70;;;2.47;;
69783;SDS011;57054;51.978;4.498;2023-03-23T04:09:43;5.75;;;1.92;;
69783;SDS011;57054;51.978;4.498;2023-03-23T04:14:36;10.10;;;2.60;;
69783;SDS011;57054;51.978;4.498;2023-03-23T04:17:01;6.97;;;2.20;;
69783;SDS011;57054;51.978;4.498;2023-03-23T04:19:27;6.53;;;2.45;;
69783;SDS011;57054;51.978;4.498;2023-03-23T04:21:53;5.55;;;2.13;;
69783;SDS011;57054;51.978;4.498;2023-03-23T04:24:20;6.88;;;1.85;;
69783;SDS011;57054;51.978;4.498;2023-03-23T04:26:49;6.38;;;1.60;;
69783;SDS011;57054;51.978;4.498;2023-03-23T04:29:17;4.47;;;1.70;;
69783;SDS011;57054;51.978;4.498;2023-03-23T04:31:43;11.85;;;2.58;;
69783;SDS011;57054;51.978;4.498;2023-03-23T04:34:10;8.98;;;2.25;;
69783;SDS011;57054;51.978;4.498;2023-03-23T04:36:38;8.13;;;2.10;;
69783;SDS011;57054;51.978;4.498;2023-03-23T04:39:04;8.13;;;2.10;;
69783;SDS011;57054;51.978;4.498;2023-03-23T04:41:32;11.55;;;2.50;;
69783;SDS011;57054;51.978;4.498;2023-03-23T04:43:57;9.40;;;2.33;;
69783;SDS011;57054;51.978;4.498;2023-03-23T04:46:27;13.88;;;3.05;;
69783;SDS011;57054;51.978;4.498;2023-03-23T04:48:53;6.30;;;2.05;;
69783;SDS011;57054;51.978;4.498;2023-03-23T04:51:19;7.95;;;2.42;;
69783;SDS011;57054;51.978;4.498;2023-03-23T04:53:45;6.55;;;2.45;;
69783;SDS011;57054;51.978;4.498;2023-03-23T04:56:10;9.50;;;2.90;;
69783;SDS011;57054;51.978;4.498;2023-03-23T04:58:38;10.40;;;4.00;;
69783;SDS011;57054;51.978;4.498;2023-03-23T05:01:04;8.88;;;3.20;;
69783;SDS011;57054;51.978;4.498;2023-03-23T05:03:30;13.90;;;2.67;;
69783;SDS011;57054;51.978;4.498;2023-03-23T05:05:55;6.22;;;2.33;;
69783;SDS011;57054;51.978;4.498;2023-03-23T05:08:22;3.08;;;2.15;;
69783;SDS011;57054;51.978;4.498;2023-03-23T05:10:53;5.45;;;2.30;;
69783;SDS011;57054;51.978;4.498;2023-03-23T05:13:19;14.00;;;2.78;;
69783;SDS011;57054;51.978;4.498;2023-03-23T05:15:45;13.48;;;2.78;;
69783;SDS011;57054;51.978;4.498;2023-03-23T05:18:11;6.30;;;2.47;;
69783;SDS011;57054;51.978;4.498;2023-03-23T05:20:37;14.00;;;2.65;;
69783;SDS011;57054;51.978;4.498;2023-03-23T05:23:02;12.25;;;2.60;;
69783;SDS011;57054;51.978;4.498;2023-03-23T05:25:28;8.00;;;2.50;;
69783;SDS011;57054;51.978;4.498;2023-03-23T05:27:53;7.13;;;2.03;;
69783;SDS011;57054;51.978;4.498;2023-03-23T05:30:19;8.70;;;2.75;;
69783;SDS011;57054;51.978;4.498;2023-03-23T05:32:46;13.02;;;2.97;;
69783;SDS011;57054;51.978;4.498;2023-03-23T05:35:15;8.93;;;3.10;;
69783;SDS011;57054;51.978;4.498;2023-03-23T05:37:42;8.13;;;2.30;;
69783;SDS011;57054;51.978;4.498;2023-03-23T05:40:09;13.20;;;2.45;;
69783;SDS011;57054;51.978;4.498;2023-03-23T05:42:37;6.57;;;2.80;;
69783;SDS011;57054;51.978;4.498;2023-03-23T05:47:31;7.97;;;2.25;;
69783;SDS011;57054;51.978;4.498;2023-03-23T05:49:57;6.63;;;2.40;;
69783;SDS011;57054;51.978;4.498;2023-03-23T05:52:23;11.07;;;3.28;;
69783;SDS011;57054;51.978;4.498;2023-03-23T05:54:52;10.70;;;3.10;;
69783;SDS011;57054;51.978;4.498;2023-03-23T05:57:18;10.75;;;3.72;;
69783;SDS011;57054;51.978;4.498;2023-03-23T05:59:44;9.18;;;3.30;;
69783;SDS011;57054;51.978;4.498;2023-03-23T06:02:10;11.35;;;3.22;;
69783;SDS011;57054;51.978;4.498;2023-03-23T06:04:36;9.20;;;2.90;;
69783;SDS011;57054;51.978;4.498;2023-03-23T06:07:03;13.05;;;3.50;;
69783;SDS011;57054;51.978;4.498;2023-03-23T06:09:29;10.80;;;3.00;;
69783;SDS011;57054;51.978;4.498;2023-03-23T06:11:55;12.73;;;2.95;;
69783;SDS011;57054;51.978;4.498;2023-03-23T06:14:21;14.07;;;3.70;;
69783;SDS011;57054;51.978;4.498;2023-03-23T06:16:47;12.75;;;3.95;;
69783;SDS011;57054;51.978;4.498;2023-03-23T06:19:12;12.18;;;3.72;;
69783;SDS011;57054;51.978;4.498;2023-03-23T06:21:38;17.48;;;3.35;;
69783;SDS011;57054;51.978;4.498;2023-03-23T06:24:03;13.40;;;3.28;;
69783;SDS011;57054;51.978;4.498;2023-03-23T06:26:34;19.50;;;4.03;;
69783;SDS011;57054;51.978;4.498;2023-03-23T06:29:02;8.18;;;2.92;;
69783;SDS011;57054;51.978;4.498;2023-03-23T06:31:35;19.27;;;3.55;;
69783;SDS011;57054;51.978;4.498;2023-03-23T06:34:22;15.38;;;3.10;;
69783;SDS011;57054;51.978;4.498;2023-03-23T06:36:48;12.00;;;3.05;;
69783;SDS011;57054;51.978;4.498;2023-03-23T06:39:13;10.77;;;3.20;;
69783;SDS011;57054;51.978;4.498;2023-03-23T06:41:39;15.73;;;2.70;;
69783;SDS011;57054;51.978;4.498;2023-03-23T06:44:05;11.57;;;2.28;;
69783;SDS011;57054;51.978;4.498;2023-03-23T06:46:31;11.95;;;3.00;;
69783;SDS011;57054;51.978;4.498;2023-03-23T06:48:57;16.30;;;2.90;;
69783;SDS011;57054;51.978;4.498;2023-03-23T06:51:23;12.18;;;2.30;;
69783;SDS011;57054;51.978;4.498;2023-03-23T06:53:48;9.13;;;2.67;;
69783;SDS011;57054;51.978;4.498;2023-03-23T06:56:14;11.55;;;3.08;;
69783;SDS011;57054;51.978;4.498;2023-03-23T06:58:39;11.88;;;2.67;;
69783;SDS011;57054;51.978;4.498;2023-03-23T07:01:07;7.88;;;2.47;;
69783;SDS011;57054;51.978;4.498;2023-03-23T07:03:33;7.55;;;2.25;;
69783;SDS011;57054;51.978;4.498;2023-03-23T07:05:59;10.68;;;2.25;;
69783;SDS011;57054;51.978;4.498;2023-03-23T07:08:24;7.55;;;2.00;;
69783;SDS011;57054;51.978;4.498;2023-03-23T07:10:51;13.50;;;2.33;;
69783;SDS011;57054;51.978;4.498;2023-03-23T07:13:18;6.85;;;2.20;;
69783;SDS011;57054;51.978;4.498;2023-03-23T07:15:43;11.85;;;2.80;;
69783;SDS011;57054;51.978;4.498;2023-03-23T07:18:09;10.25;;;2.53;;
69783;SDS011;57054;51.978;4.498;2023-03-23T07:20:35;8.63;;;2.15;;
69783;SDS011;57054;51.978;4.498;2023-03-23T07:23:01;9.20;;;2.60;;
69783;SDS011;57054;51.978;4.498;2023-03-23T07:25:27;10.25;;;2.38;;
69783;SDS011;57054;51.978;4.498;2023-03-23T07:27:52;12.95;;;2.78;;
69783;SDS011;57054;51.978;4.498;2023-03-23T07:30:17;10.80;;;2.78;;
69783;SDS011;57054;51.978;4.498;2023-03-23T07:32:43;18.20;;;3.05;;
69783;SDS011;57054;51.978;4.498;2023-03-23T07:35:09;8.25;;;2.10;;
69783;SDS011;57054;51.978;4.498;2023-03-23T07:37:35;12.40;;;2.90;;
69783;SDS011;57054;51.978;4.498;2023-03-23T07:40:01;15.15;;;2.45;;
69783;SDS011;57054;51.978;4.498;2023-03-23T07:42:39;12.40;;;2.70;;
69783;SDS011;57054;51.978;4.498;2023-03-23T07:45:05;17.25;;;3.10;;
69783;SDS011;57054;51.978;4.498;2023-03-23T07:47:31;13.43;;;2.25;;
69783;SDS011;57054;51.978;4.498;2023-03-23T07:49:56;13.18;;;3.20;;
69783;SDS011;57054;51.978;4.498;2023-03-23T07:52:22;13.88;;;2.88;;
69783;SDS011;57054;51.978;4.498;2023-03-23T07:54:48;11.82;;;2.47;;
69783;SDS011;57054;51.978;4.498;2023-03-23T07:57:14;13.27;;;2.80;;
69783;SDS011;57054;51.978;4.498;2023-03-23T07:59:40;10.55;;;2.38;;
69783;SDS011;57054;51.978;4.498;2023-03-23T08:02:07;8.90;;;2.40;;
69783;SDS011;57054;51.978;4.498;2023-03-23T08:04:34;10.98;;;3.13;;
69783;SDS011;57054;51.978;4.498;2023-03-23T08:07:02;12.77;;;2.63;;
69783;SDS011;57054;51.978;4.498;2023-03-23T08:09:29;7.80;;;2.92;;
69783;SDS011;57054;51.978;4.498;2023-03-23T08:11:55;11.27;;;3.25;;
69783;SDS011;57054;51.978;4.498;2023-03-23T08:14:21;12.68;;;3.00;;
69783;SDS011;57054;51.978;4.498;2023-03-23T08:16:48;8.65;;;2.33;;
69783;SDS011;57054;51.978;4.498;2023-03-23T08:19:13;11.52;;;2.70;;
69783;SDS011;57054;51.978;4.498;2023-03-23T08:21:39;8.30;;;2.90;;
69783;SDS011;57054;51.978;4.498;2023-03-23T08:24:05;12.23;;;2.60;;
69783;SDS011;57054;51.978;4.498;2023-03-23T08:26:31;12.40;;;3.25;;
69783;SDS011;57054;51.978;4.498;2023-03-23T08:28:56;8.60;;;3.22;;
69783;SDS011;57054;51.978;4.498;2023-03-23T08:31:22;18.90;;;4.05;;
69783;SDS011;57054;51.978;4.498;2023-03-23T08:33:48;14.48;;;4.10;;
69783;SDS011;57054;51.978;4.498;2023-03-23T08:36:14;13.70;;;4.35;;
69783;SDS011;57054;51.978;4.498;2023-03-23T08:38:39;14.90;;;3.70;;
69783;SDS011;57054;51.978;4.498;2023-03-23T08:41:05;16.70;;;3.92;;
69783;SDS011;57054;51.978;4.498;2023-03-23T08:43:32;21.15;;;3.45;;
69783;SDS011;57054;51.978;4.498;2023-03-23T08:45:59;10.07;;;3.08;;
69783;SDS011;57054;51.978;4.498;2023-03-23T08:48:24;17.42;;;4.30;;
69783;SDS011;57054;51.978;4.498;2023-03-23T08:50:50;11.30;;;3.28;;
69783;SDS011;57054;51.978;4.498;2023-03-23T08:53:17;14.73;;;3.15;;
69783;SDS011;57054;51.978;4.498;2023-03-23T08:55:45;17.40;;;3.45;;
69783;SDS011;57054;51.978;4.498;2023-03-23T08:58:11;14.65;;;2.53;;
69783;SDS011;57054;51.978;4.498;2023-03-23T09:00:36;7.15;;;2.03;;
69783;SDS011;57054;51.978;4.498;2023-03-23T09:03:01;14.15;;;3.17;;
69783;SDS011;57054;51.978;4.498;2023-03-23T09:05:28;11.25;;;2.80;;
69783;SDS011;57054;51.978;4.498;2023-03-23T09:07:54;24.92;;;3.20;;
69783;SDS011;57054;51.978;4.498;2023-03-23T09:10:23;12.35;;;2.50;;
69783;SDS011;57054;51.978;4.498;2023-03-23T09:12:51;16.80;;;3.30;;
69783;SDS011;57054;51.978;4.498;2023-03-23T09:15:17;13.05;;;2.58;;
69783;SDS011;57054;51.978;4.498;2023-03-23T09:17:47;16.45;;;2.65;;
69783;SDS011;57054;51.978;4.498;2023-03-23T09:20:15;12.55;;;3.00;;
69783;SDS011;57054;51.978;4.498;2023-03-23T09:22:46;15.10;;;3.15;;
69783;SDS011;57054;51.978;4.498;2023-03-23T09:25:14;15.50;;;3.50;;
69783;SDS011;57054;51.978;4.498;2023-03-23T09:27:43;15.50;;;2.47;;
69783;SDS011;57054;51.978;4.498;2023-03-23T09:30:12;19.70;;;2.83;;
69783;SDS011;57054;51.978;4.498;2023-03-23T09:32:39;13.50;;;3.40;;
69783;SDS011;57054;51.978;4.498;2023-03-23T09:35:06;23.40;;;3.13;;
69783;SDS011;57054;51.978;4.498;2023-03-23T09:37:34;19.20;;;3.38;;
69783;SDS011;57054;51.978;4.498;2023-03-23T09:40:01;19.35;;;3.05;;
69783;SDS011;57054;51.978;4.498;2023-03-23T09:50:29;17.40;;;3.17;;
69783;SDS011;57054;51.978;4.498;2023-03-23T09:53:12;20.83;;;4.00;;
69783;SDS011;57054;51.978;4.498;2023-03-23T09:55:42;15.55;;;2.83;;
69783;SDS011;57054;51.978;4.498;2023-03-23T09:58:14;16.08;;;2.97;;
69783;SDS011;57054;51.978;4.498;2023-03-23T10:00:57;19.00;;;3.95;;
69783;SDS011;57054;51.978;4.498;2023-03-23T10:03:30;22.83;;;3.85;;
69783;SDS011;57054;51.978;4.498;2023-03-23T10:06:02;23.75;;;3.53;;
69783;SDS011;57054;51.978;4.498;2023-03-23T10:08:30;19.58;;;3.47;;
69783;SDS011;57054;51.978;4.498;2023-03-23T10:10:59;19.27;;;3.38;;
69783;SDS011;57054;51.978;4.498;2023-03-23T10:16:02;21.02;;;3.40;;
69783;SDS011;57054;51.978;4.498;2023-03-23T10:18:35;22.23;;;3.45;;
69783;SDS011;57054;51.978;4.498;2023-03-23T10:21:03;13.77;;;2.47;;
69783;SDS011;57054;51.978;4.498;2023-03-23T10:23:35;18.13;;;3.13;;
69783;SDS011;57054;51.978;4.498;2023-03-23T10:26:13;16.05;;;3.38;;
69783;SDS011;57054;51.978;4.498;2023-03-23T10:28:57;23.13;;;3.22;;
69783;SDS011;57054;51.978;4.498;2023-03-23T10:31:32;23.65;;;3.08;;
69783;SDS011;57054;51.978;4.498;2023-03-23T10:34:04;22.23;;;2.95;;
69783;SDS011;57054;51.978;4.498;2023-03-23T10:36:37;14.40;;;2.83;;
69783;SDS011;57054;51.978;4.498;2023-03-23T10:41:37;17.55;;;3.22;;
69783;SDS011;57054;51.978;4.498;2023-03-23T10:44:10;14.25;;;3.90;;
69783;SDS011;57054;51.978;4.498;2023-03-23T10:49:25;14.93;;;3.08;;
69783;SDS011;57054;51.978;4.498;2023-03-23T10:54:39;17.67;;;2.67;;
69783;SDS011;57054;51.978;4.498;2023-03-23T10:57:12;16.40;;;2.90;;
69783;SDS011;57054;51.978;4.498;2023-03-23T10:59:46;18.80;;;2.97;;
69783;SDS011;57054;51.978;4.498;2023-03-23T11:02:16;30.30;;;3.97;;
69783;SDS011;57054;51.978;4.498;2023-03-23T11:04:53;15.57;;;3.10;;
69783;SDS011;57054;51.978;4.498;2023-03-23T11:07:25;22.00;;;3.38;;
69783;SDS011;57054;51.978;4.498;2023-03-23T11:09:54;19.20;;;2.70;;
69783;SDS011;57054;51.978;4.498;2023-03-23T11:12:21;13.70;;;2.93;;
69783;SDS011;57054;51.978;4.498;2023-03-23T11:14:48;15.07;;;3.00;;
69783;SDS011;57054;51.978;4.498;2023-03-23T11:17:26;10.25;;;2.85;;
69783;SDS011;57054;51.978;4.498;2023-03-23T11:19:52;13.70;;;2.58;;
69783;SDS011;57054;51.978;4.498;2023-03-23T11:22:29;15.80;;;2.50;;
69783;SDS011;57054;51.978;4.498;2023-03-23T11:25:03;22.17;;;3.63;;
69783;SDS011;57054;51.978;4.498;2023-03-23T11:27:30;15.20;;;2.70;;
69783;SDS011;57054;51.978;4.498;2023-03-23T11:30:01;23.15;;;2.67;;
69783;SDS011;57054;51.978;4.498;2023-03-23T11:32:35;16.88;;;2.78;;
69783;SDS011;57054;51.978;4.498;2023-03-23T11:35:06;19.90;;;3.25;;
69783;SDS011;57054;51.978;4.498;2023-03-23T11:37:43;14.65;;;2.45;;
69783;SDS011;57054;51.978;4.498;2023-03-23T11:42:47;15.45;;;2.50;;
69783;SDS011;57054;51.978;4.498;2023-03-23T11:45:25;14.73;;;2.60;;
69783;SDS011;57054;51.978;4.498;2023-03-23T11:51:02;15.65;;;2.78;;
69783;SDS011;57054;51.978;4.498;2023-03-23T11:53:35;12.95;;;2.30;;
69783;SDS011;57054;51.978;4.498;2023-03-23T11:56:25;6.47;;;1.80;;
69783;SDS011;57054;51.978;4.498;2023-03-23T11:58:50;7.90;;;2.45;;
69783;SDS011;57054;51.978;4.498;2023-03-23T12:01:24;14.30;;;2.20;;
69783;SDS011;57054;51.978;4.498;2023-03-23T12:09:46;8.00;;;1.70;;
69783;SDS011;57054;51.978;4.498;2023-03-23T12:12:40;9.93;;;2.55;;
69783;SDS011;57054;51.978;4.498;2023-03-23T12:18:10;12.52;;;2.42;;
69783;SDS011;57054;51.978;4.498;2023-03-23T12:23:31;20.88;;;2.97;;
69783;SDS011;57054;51.978;4.498;2023-03-23T12:36:37;7.60;;;2.00;;
69783;SDS011;57054;51.978;4.498;2023-03-23T12:42:28;16.35;;;2.45;;
69783;SDS011;57054;51.978;4.498;2023-03-23T12:48:08;13.57;;;2.35;;
69783;SDS011;57054;51.978;4.498;2023-03-23T12:50:42;10.63;;;2.40;;
69783;SDS011;57054;51.978;4.498;2023-03-23T12:53:23;14.20;;;2.47;;
69783;SDS011;57054;51.978;4.498;2023-03-23T12:56:06;11.48;;;2.28;;
69783;SDS011;57054;51.978;4.498;2023-03-23T12:58:40;10.63;;;2.42;;
69783;SDS011;57054;51.978;4.498;2023-03-23T13:01:12;11.23;;;2.10;;
69783;SDS011;57054;51.978;4.498;2023-03-23T13:06:35;19.30;;;2.50;;
69783;SDS011;57054;51.978;4.498;2023-03-23T13:11:58;18.70;;;2.92;;
69783;SDS011;57054;51.978;4.498;2023-03-23T13:23:15;14.70;;;3.10;;
69783;SDS011;57054;51.978;4.498;2023-03-23T13:28:20;9.85;;;2.50;;
69783;SDS011;57054;51.978;4.498;2023-03-23T13:30:54;19.38;;;2.72;;
69783;SDS011;57054;51.978;4.498;2023-03-23T13:33:29;16.63;;;2.85;;
69783;SDS011;57054;51.978;4.498;2023-03-23T13:35:56;18.30;;;3.20;;
69783;SDS011;57054;51.978;4.498;2023-03-23T13:38:31;15.75;;;3.25;;
69783;SDS011;57054;51.978;4.498;2023-03-23T13:40:56;22.27;;;3.28;;
69783;SDS011;57054;51.978;4.498;2023-03-23T13:43:32;19.70;;;2.85;;
69783;SDS011;57054;51.978;4.498;2023-03-23T13:46:06;18.00;;;3.35;;
69783;SDS011;57054;51.978;4.498;2023-03-23T13:48:39;17.48;;;3.35;;
69783;SDS011;57054;51.978;4.498;2023-03-23T13:51:21;13.57;;;2.15;;
69783;SDS011;57054;51.978;4.498;2023-03-23T13:54:13;14.77;;;2.58;;
69783;SDS011;57054;51.978;4.498;2023-03-23T13:56:59;13.65;;;2.33;;
69783;SDS011;57054;51.978;4.498;2023-03-23T14:01:55;19.83;;;2.95;;
69783;SDS011;57054;51.978;4.498;2023-03-23T14:04:23;9.68;;;2.38;;
69783;SDS011;57054;51.978;4.498;2023-03-23T14:06:56;21.95;;;3.47;;
69783;SDS011;57054;51.978;4.498;2023-03-23T14:09:31;14.18;;;3.00;;
69783;SDS011;57054;51.978;4.498;2023-03-23T14:11:59;18.23;;;2.88;;
69783;SDS011;57054;51.978;4.498;2023-03-23T14:14:34;16.95;;;2.83;;
69783;SDS011;57054;51.978;4.498;2023-03-23T14:20:09;26.23;;;2.92;;
69783;SDS011;57054;51.978;4.498;2023-03-23T14:22:52;19.85;;;3.10;;
69783;SDS011;57054;51.978;4.498;2023-03-23T14:25:19;13.00;;;2.80;;
69783;SDS011;57054;51.978;4.498;2023-03-23T14:27:50;18.33;;;3.67;;
69783;SDS011;57054;51.978;4.498;2023-03-23T14:30:20;15.40;;;3.10;;
69783;SDS011;57054;51.978;4.498;2023-03-23T14:32:47;17.40;;;2.35;;
69783;SDS011;57054;51.978;4.498;2023-03-23T14:35:17;15.82;;;2.80;;
69783;SDS011;57054;51.978;4.498;2023-03-23T14:37:48;14.90;;;2.92;;
69783;SDS011;57054;51.978;4.498;2023-03-23T14:40:15;21.88;;;2.55;;
69783;SDS011;57054;51.978;4.498;2023-03-23T14:42:42;13.90;;;2.78;;
69783;SDS011;57054;51.978;4.498;2023-03-23T14:45:10;15.27;;;2.17;;
69783;SDS011;57054;51.978;4.498;2023-03-23T14:47:42;20.00;;;3.22;;
69783;SDS011;57054;51.978;4.498;2023-03-23T14:50:41;13.30;;;2.83;;
69783;SDS011;57054;51.978;4.498;2023-03-23T14:55:47;12.20;;;2.85;;
69783;SDS011;57054;51.978;4.498;2023-03-23T14:58:15;12.27;;;2.10;;
69783;SDS011;57054;51.978;4.498;2023-03-23T15:00:47;13.98;;;2.50;;
69783;SDS011;57054;51.978;4.498;2023-03-23T15:03:20;7.85;;;2.50;;
69783;SDS011;57054;51.978;4.498;2023-03-23T15:05:47;15.23;;;3.13;;
69783;SDS011;57054;51.978;4.498;2023-03-23T15:08:24;17.88;;;3.17;;
69783;SDS011;57054;51.978;4.498;2023-03-23T15:13:26;9.38;;;2.53;;
69783;SDS011;57054;51.978;4.498;2023-03-23T15:15:51;12.65;;;2.60;;
69783;SDS011;57054;51.978;4.498;2023-03-23T15:18:29;11.98;;;2.65;;
69783;SDS011;57054;51.978;4.498;2023-03-23T15:20:56;11.65;;;2.17;;
69783;SDS011;57054;51.978;4.498;2023-03-23T15:23:25;22.27;;;3.88;;
69783;SDS011;57054;51.978;4.498;2023-03-23T15:25:54;11.07;;;1.95;;
69783;SDS011;57054;51.978;4.498;2023-03-23T15:28:21;8.30;;;2.15;;
69783;SDS011;57054;51.978;4.498;2023-03-23T15:30:54;19.95;;;3.30;;
69783;SDS011;57054;51.978;4.498;2023-03-23T15:33:23;13.80;;;3.22;;
69783;SDS011;57054;51.978;4.498;2023-03-23T15:35:53;15.73;;;2.67;;
69783;SDS011;57054;51.978;4.498;2023-03-23T15:38:22;12.57;;;2.67;;
69783;SDS011;57054;51.978;4.498;2023-03-23T15:40:52;14.88;;;2.58;;
69783;SDS011;57054;51.978;4.498;2023-03-23T15:43:20;11.13;;;2.78;;
69783;SDS011;57054;51.978;4.498;2023-03-23T15:45:56;13.45;;;2.63;;
69783;SDS011;57054;51.978;4.498;2023-03-23T15:48:28;19.05;;;3.70;;
69783;SDS011;57054;51.978;4.498;2023-03-23T15:50:55;10.80;;;2.45;;
69783;SDS011;57054;51.978;4.498;2023-03-23T15:55:52;12.18;;;2.05;;
69783;SDS011;57054;51.978;4.498;2023-03-23T15:58:18;13.20;;;2.53;;
69783;SDS011;57054;51.978;4.498;2023-03-23T16:00:43;20.35;;;3.53;;
69783;SDS011;57054;51.978;4.498;2023-03-23T16:03:12;15.73;;;3.25;;
69783;SDS011;57054;51.978;4.498;2023-03-23T16:05:43;13.68;;;2.45;;
69783;SDS011;57054;51.978;4.498;2023-03-23T16:08:12;15.70;;;2.90;;
69783;SDS011;57054;51.978;4.498;2023-03-23T16:10:38;20.98;;;2.30;;
69783;SDS011;57054;51.978;4.498;2023-03-23T16:13:04;12.38;;;2.90;;
69783;SDS011;57054;51.978;4.498;2023-03-23T16:15:30;16.73;;;3.25;;
69783;SDS011;57054;51.978;4.498;2023-03-23T16:17:56;13.15;;;2.85;;
69783;SDS011;57054;51.978;4.498;2023-03-23T16:20:22;10.65;;;3.10;;
69783;SDS011;57054;51.978;4.498;2023-03-23T16:22:48;16.95;;;3.08;;
69783;SDS011;57054;51.978;4.498;2023-03-23T16:25:15;16.65;;;2.75;;
69783;SDS011;57054;51.978;4.498;2023-03-23T16:27:42;16.10;;;3.45;;
69783;SDS011;57054;51.978;4.498;2023-03-23T16:32:39;10.23;;;3.03;;
69783;SDS011;57054;51.978;4.498;2023-03-23T16:35:05;14.18;;;2.55;;
69783;SDS011;57054;51.978;4.498;2023-03-23T16:37:30;17.60;;;2.60;;
69783;SDS011;57054;51.978;4.498;2023-03-23T16:39:57;15.90;;;2.83;;
69783;SDS011;57054;51.978;4.498;2023-03-23T16:42:23;9.50;;;2.28;;
69783;SDS011;57054;51.978;4.498;2023-03-23T16:44:48;14.00;;;2.85;;
69783;SDS011;57054;51.978;4.498;2023-03-23T16:47:15;17.10;;;3.30;;
69783;SDS011;57054;51.978;4.498;2023-03-23T16:49:42;19.43;;;2.97;;
69783;SDS011;57054;51.978;4.498;2023-03-23T16:52:08;11.85;;;2.53;;
69783;SDS011;57054;51.978;4.498;2023-03-23T16:54:34;16.85;;;3.00;;
69783;SDS011;57054;51.978;4.498;2023-03-23T16:57:00;16.85;;;3.33;;
69783;SDS011;57054;51.978;4.498;2023-03-23T16:59:28;9.02;;;2.25;;
69783;SDS011;57054;51.978;4.498;2023-03-23T17:01:53;12.95;;;2.75;;